createdAt,value
2022-12-27T00:02:20.319Z,2.05
2022-12-27T00:04:46.866Z,2.33
2022-12-27T00:07:13.308Z,1.92
2022-12-27T00:09:39.792Z,1.92
2022-12-27T00:12:06.529Z,2.00
2022-12-27T00:14:32.872Z,2.40
2022-12-27T00:16:59.212Z,1.98
2022-12-27T00:19:25.581Z,2.17
2022-12-27T00:21:51.916Z,1.92
2022-12-27T00:24:18.415Z,1.83
2022-12-27T00:26:44.809Z,2.05
2022-12-27T00:29:11.144Z,2.50
2022-12-27T00:31:37.618Z,2.40
2022-12-27T00:34:07.757Z,2.17
2022-12-27T00:36:34.865Z,2.10
2022-12-27T00:39:01.936Z,1.90
2022-12-27T00:41:28.657Z,1.83
2022-12-27T00:43:55.245Z,1.60
2022-12-27T00:46:21.813Z,2.00
2022-12-27T00:48:48.300Z,2.00
2022-12-27T00:51:17.884Z,1.50
2022-12-27T00:53:45.149Z,1.95
2022-12-27T00:56:16.160Z,2.03
2022-12-27T00:58:42.728Z,1.90
2022-12-27T01:01:18.927Z,2.13
2022-12-27T01:03:46.100Z,1.65
2022-12-27T01:06:16.151Z,1.55
2022-12-27T01:08:43.232Z,1.92
2022-12-27T01:11:11.126Z,1.88
2022-12-27T01:13:38.651Z,1.50
2022-12-27T01:16:19.388Z,1.50
2022-12-27T01:18:46.793Z,2.47
2022-12-27T01:21:15.257Z,1.73
2022-12-27T01:23:42.101Z,1.65
2022-12-27T01:26:11.980Z,1.50
2022-12-27T01:28:38.512Z,1.60
2022-12-27T01:31:10.715Z,1.58
2022-12-27T01:33:37.485Z,1.42
2022-12-27T01:36:14.980Z,2.10
2022-12-27T01:38:44.102Z,1.80
2022-12-27T01:41:38.297Z,1.92
2022-12-27T01:44:39.071Z,1.52
2022-12-27T01:47:35.117Z,2.10
2022-12-27T01:50:16.102Z,1.90
2022-12-27T01:52:46.676Z,2.33
2022-12-27T01:55:17.269Z,1.95
2022-12-27T01:57:44.034Z,2.33
2022-12-27T02:00:11.590Z,2.65
2022-12-27T02:02:38.811Z,1.77
2022-12-27T02:05:06.476Z,1.90
2022-12-27T02:07:43.032Z,1.80
2022-12-27T02:10:09.481Z,1.17
2022-12-27T02:12:35.900Z,0.90
2022-12-27T02:15:04.439Z,1.05
2022-12-27T02:17:33.452Z,1.10
2022-12-27T02:20:17.218Z,0.85
2022-12-27T02:23:40.080Z,1.20
2022-12-27T02:26:28.009Z,1.75
2022-12-27T02:29:15.304Z,1.65
2022-12-27T02:31:49.261Z,2.30
2022-12-27T02:34:22.877Z,2.00
2022-12-27T02:36:53.051Z,1.80
2022-12-27T02:39:21.761Z,1.75
2022-12-27T02:42:07.644Z,1.85
2022-12-27T02:44:52.984Z,2.50
2022-12-27T02:47:40.317Z,2.30
2022-12-27T02:50:28.826Z,2.05
2022-12-27T02:53:17.362Z,1.88
2022-12-27T02:56:24.151Z,2.17
2022-12-27T02:58:59.443Z,1.70
2022-12-27T03:01:53.999Z,1.98
2022-12-27T03:04:32.715Z,1.98
2022-12-27T03:07:11.354Z,1.95
2022-12-27T03:10:15.551Z,1.92
2022-12-27T03:13:22.558Z,2.60
2022-12-27T03:16:00.832Z,1.80
2022-12-27T03:18:54.354Z,2.35
2022-12-27T03:22:03.685Z,1.90
2022-12-27T03:24:52.361Z,2.20
2022-12-27T03:27:28.516Z,2.20
2022-12-27T03:30:15.875Z,1.95
2022-12-27T03:33:07.326Z,1.85
2022-12-27T03:36:15.413Z,2.30
2022-12-27T03:38:58.793Z,1.70
2022-12-27T03:41:48.528Z,1.70
2022-12-27T03:44:24.752Z,2.22
2022-12-27T03:46:58.589Z,1.35
2022-12-27T03:49:38.911Z,1.45
2022-12-27T03:52:22.617Z,1.50
2022-12-27T03:54:51.905Z,2.00
2022-12-27T03:57:22.161Z,2.00
2022-12-27T03:59:48.623Z,1.70
2022-12-27T04:02:15.146Z,1.70
2022-12-27T04:04:41.706Z,2.13
2022-12-27T04:07:08.131Z,2.13
2022-12-27T04:09:53.563Z,2.10
2022-12-27T04:12:38.408Z,1.67
2022-12-27T04:15:23.810Z,2.15
2022-12-27T04:18:08.668Z,1.48
2022-12-27T04:20:53.493Z,1.97
2022-12-27T04:23:38.448Z,1.65
2022-12-27T04:26:23.736Z,1.42
2022-12-27T04:29:08.632Z,2.38
2022-12-27T04:31:53.926Z,1.52
2022-12-27T04:34:38.797Z,1.73
2022-12-27T04:37:05.924Z,1.58
2022-12-27T04:39:32.790Z,2.20
2022-12-27T04:42:17.886Z,1.92
2022-12-27T04:45:02.714Z,1.92
2022-12-27T04:47:48.344Z,1.50
2022-12-27T04:50:44.559Z,2.03
2022-12-27T04:53:35.455Z,1.58
2022-12-27T04:56:02.719Z,2.22
2022-12-27T04:58:29.458Z,2.08
2022-12-27T05:01:19.887Z,1.40
2022-12-27T05:03:49.486Z,1.42
2022-12-27T05:06:16.763Z,1.52
2022-12-27T05:09:02.418Z,1.60
2022-12-27T05:11:47.290Z,2.85
2022-12-27T05:14:15.059Z,1.43
2022-12-27T05:16:43.696Z,1.70
2022-12-27T05:19:12.216Z,1.70
2022-12-27T05:21:40.200Z,1.52
2022-12-27T05:24:25.474Z,1.85
2022-12-27T05:26:55.979Z,2.00
2022-12-27T05:29:22.442Z,1.75
2022-12-27T05:31:48.925Z,1.20
2022-12-27T05:34:15.450Z,1.65
2022-12-27T05:36:41.849Z,1.65
2022-12-27T05:39:08.232Z,1.70
2022-12-27T05:41:34.619Z,1.80
2022-12-27T05:44:06.886Z,1.58
2022-12-27T05:46:34.344Z,1.52
2022-12-27T05:49:00.729Z,1.60
2022-12-27T05:51:27.133Z,1.53
2022-12-27T05:53:53.566Z,2.17
2022-12-27T05:56:21.258Z,1.42
2022-12-27T05:58:47.802Z,1.70
2022-12-27T06:01:17.539Z,2.15
2022-12-27T06:03:44.711Z,2.00
2022-12-27T06:06:12.239Z,1.75
2022-12-27T06:08:39.784Z,2.08
2022-12-27T06:11:11.741Z,1.65
2022-12-27T06:13:39.619Z,1.92
2022-12-27T06:16:08.485Z,1.80
2022-12-27T06:18:36.689Z,1.60
2022-12-27T06:21:02.993Z,1.88
2022-12-27T06:23:29.397Z,1.80
2022-12-27T06:25:55.785Z,1.40
2022-12-27T06:28:22.123Z,1.77
2022-12-27T06:30:48.559Z,2.30
2022-12-27T06:33:14.939Z,1.88
2022-12-27T06:35:41.432Z,1.67
2022-12-27T06:38:07.826Z,1.83
2022-12-27T06:40:34.217Z,2.00
2022-12-27T06:43:00.597Z,1.63
2022-12-27T06:45:27.071Z,1.80
2022-12-27T06:47:53.486Z,1.88
2022-12-27T06:50:19.997Z,1.88
2022-12-27T06:52:46.401Z,1.67
2022-12-27T06:55:12.791Z,2.00
2022-12-27T06:57:39.213Z,1.90
2022-12-27T07:00:06.406Z,1.90
2022-12-27T07:02:32.920Z,2.15
2022-12-27T07:04:59.336Z,2.07
2022-12-27T07:07:25.793Z,1.95
2022-12-27T07:09:52.169Z,1.92
2022-12-27T07:12:18.532Z,1.70
2022-12-27T07:14:44.909Z,2.08
2022-12-27T07:17:11.269Z,2.40
2022-12-27T07:19:37.596Z,2.00
2022-12-27T07:22:03.978Z,1.58
2022-12-27T07:24:33.161Z,2.00
2022-12-27T07:27:00.207Z,2.40
2022-12-27T07:29:27.558Z,2.07
2022-12-27T07:31:54.173Z,1.52
2022-12-27T07:34:22.013Z,2.13
2022-12-27T07:36:48.395Z,1.95
2022-12-27T07:39:14.917Z,1.55
2022-12-27T07:41:41.334Z,1.97
2022-12-27T07:44:07.746Z,2.08
2022-12-27T07:46:34.313Z,1.92
2022-12-27T07:49:00.766Z,1.90
2022-12-27T07:51:29.216Z,1.80
2022-12-27T07:53:55.805Z,2.17
2022-12-27T07:56:26.566Z,2.60
2022-12-27T07:58:54.500Z,1.80
2022-12-27T08:01:22.256Z,2.97
2022-12-27T08:03:49.532Z,1.80
2022-12-27T08:06:30.413Z,2.43
2022-12-27T08:09:05.077Z,1.80
2022-12-27T08:11:31.448Z,2.20
2022-12-27T08:13:57.889Z,2.35
2022-12-27T08:16:26.402Z,1.90
2022-12-27T08:18:56.110Z,2.30
2022-12-27T08:21:23.648Z,1.83
2022-12-27T08:23:50.077Z,2.00
2022-12-27T08:26:16.407Z,1.75
2022-12-27T08:28:42.748Z,2.13
2022-12-27T08:31:11.452Z,2.20
2022-12-27T08:33:39.087Z,2.10
2022-12-27T08:36:22.318Z,3.53
2022-12-27T08:38:54.962Z,1.83
2022-12-27T08:41:22.274Z,2.25
2022-12-27T08:43:48.731Z,2.40
2022-12-27T08:46:15.238Z,2.30
2022-12-27T08:48:41.687Z,2.45
2022-12-27T08:51:12.595Z,3.60
2022-12-27T08:53:41.102Z,2.95
2022-12-27T08:56:07.726Z,2.70
2022-12-27T08:58:34.118Z,2.65
2022-12-27T09:01:08.155Z,2.97
2022-12-27T09:03:35.050Z,2.53
2022-12-27T09:06:27.883Z,2.10
2022-12-27T09:08:55.880Z,2.67
2022-12-27T09:11:25.620Z,2.70
2022-12-27T09:13:52.086Z,3.47
2022-12-27T09:16:24.536Z,3.08
2022-12-27T09:18:53.603Z,3.30
2022-12-27T09:21:21.801Z,2.50
2022-12-27T09:23:48.900Z,2.72
2022-12-27T09:26:21.289Z,2.92
2022-12-27T09:28:48.785Z,2.70
2022-12-27T09:31:16.605Z,2.50
2022-12-27T09:33:43.779Z,2.93
2022-12-27T09:36:22.031Z,2.90
2022-12-27T09:38:49.221Z,3.25
2022-12-27T09:44:41.546Z,2.78
2022-12-27T09:47:17.312Z,2.93
2022-12-27T09:49:48.559Z,3.05
2022-12-27T09:52:28.029Z,3.25
2022-12-27T09:55:02.637Z,3.08
2022-12-27T09:57:40.427Z,3.08
2022-12-27T10:00:16.063Z,3.17
2022-12-27T10:02:46.567Z,3.85
2022-12-27T10:05:25.984Z,4.30
2022-12-27T10:08:25.692Z,3.72
2022-12-27T10:10:52.109Z,4.20
2022-12-27T10:13:42.933Z,4.63
2022-12-27T10:16:27.597Z,3.60
2022-12-27T10:19:39.023Z,4.13
2022-12-27T10:22:26.643Z,4.18
2022-12-27T10:24:56.764Z,3.97
2022-12-27T10:27:25.418Z,4.27
2022-12-27T10:29:53.876Z,3.78
2022-12-27T10:32:20.320Z,4.10
2022-12-27T10:34:55.619Z,5.45
2022-12-27T10:37:22.351Z,5.75
2022-12-27T10:39:48.697Z,6.07
2022-12-27T10:42:29.919Z,5.82
2022-12-27T10:45:24.945Z,5.40
2022-12-27T10:47:52.879Z,5.50
2022-12-27T10:50:23.107Z,5.32
2022-12-27T10:52:55.703Z,4.60
2022-12-27T10:55:34.418Z,4.78
2022-12-27T10:58:20.259Z,4.45
2022-12-27T11:00:56.228Z,4.20
2022-12-27T11:03:23.181Z,4.47
2022-12-27T11:06:03.262Z,3.77
2022-12-27T11:08:30.421Z,3.95
2022-12-27T11:11:35.463Z,4.28
2022-12-27T11:14:16.364Z,3.25
2022-12-27T11:16:43.882Z,3.88
2022-12-27T11:19:24.048Z,3.40
2022-12-27T11:21:52.431Z,3.10
2022-12-27T11:24:21.357Z,3.53
2022-12-27T11:26:59.200Z,3.28
2022-12-27T11:29:29.992Z,3.22
2022-12-27T11:31:56.935Z,3.50
2022-12-27T11:34:52.543Z,3.25
2022-12-27T11:37:22.020Z,3.90
2022-12-27T11:39:51.158Z,3.60
2022-12-27T11:42:20.167Z,3.80
2022-12-27T11:45:07.201Z,3.57
2022-12-27T11:47:49.870Z,3.63
2022-12-27T11:50:28.347Z,3.60
2022-12-27T11:53:25.730Z,3.45
2022-12-27T11:55:58.254Z,3.47
2022-12-27T11:58:27.524Z,3.93
2022-12-27T12:01:18.407Z,4.00
2022-12-27T12:03:44.849Z,3.58
2022-12-27T12:06:20.382Z,3.80
2022-12-27T12:08:54.733Z,3.55
2022-12-27T12:11:47.441Z,3.60
2022-12-27T12:14:46.489Z,3.55
2022-12-27T12:17:22.663Z,3.65
2022-12-27T12:20:48.752Z,3.65
2022-12-27T12:23:40.192Z,3.55
2022-12-27T12:26:22.423Z,3.87
2022-12-27T12:29:04.165Z,3.90
2022-12-27T12:32:17.078Z,3.88
2022-12-27T12:34:49.551Z,3.65
2022-12-27T12:37:45.286Z,3.65
2022-12-27T12:40:23.863Z,3.63
2022-12-27T12:43:27.504Z,3.33
2022-12-27T12:46:32.072Z,3.53
2022-12-27T12:49:26.130Z,3.08
2022-12-27T12:52:32.957Z,3.00
2022-12-27T12:55:20.584Z,2.70
2022-12-27T12:58:06.071Z,3.40
2022-12-27T13:01:08.070Z,3.53
2022-12-27T13:04:01.804Z,3.10
2022-12-27T13:06:59.359Z,4.25
2022-12-27T13:09:37.857Z,3.57
2022-12-27T13:12:29.348Z,3.70
2022-12-27T13:15:23.852Z,3.70
2022-12-27T13:18:18.294Z,3.42
2022-12-27T13:21:00.748Z,3.40
2022-12-27T13:23:48.980Z,2.90
2022-12-27T13:26:33.779Z,3.38
2022-12-27T13:29:25.280Z,3.00
2022-12-27T13:32:09.149Z,2.47
2022-12-27T13:34:50.824Z,3.03
2022-12-27T13:37:36.051Z,2.90
2022-12-27T13:40:08.667Z,2.65
2022-12-27T13:42:51.172Z,2.70
2022-12-27T13:45:32.546Z,2.88
2022-12-27T13:48:13.561Z,2.50
2022-12-27T13:51:08.101Z,3.00
2022-12-27T13:54:11.150Z,3.17
2022-12-27T13:57:00.205Z,3.22
2022-12-27T13:59:41.534Z,2.90
2022-12-27T14:02:26.122Z,2.25
2022-12-27T14:05:01.363Z,2.90
2022-12-27T14:08:02.824Z,2.50
2022-12-27T14:10:36.846Z,2.53
2022-12-27T14:13:10.503Z,2.47
2022-12-27T14:15:58.826Z,2.60
2022-12-27T14:18:59.272Z,2.43
2022-12-27T14:21:25.616Z,2.65
2022-12-27T14:24:07.205Z,2.83
2022-12-27T14:26:55.433Z,2.35
2022-12-27T14:29:27.810Z,3.10
2022-12-27T14:32:18.102Z,3.07
2022-12-27T14:34:44.416Z,2.58
2022-12-27T14:37:28.540Z,3.13
2022-12-27T14:40:34.812Z,2.80
2022-12-27T14:43:17.052Z,2.90
2022-12-27T14:46:02.176Z,2.47
2022-12-27T14:49:06.091Z,2.38
2022-12-27T14:52:04.511Z,2.55
2022-12-27T14:54:55.024Z,2.47
2022-12-27T14:57:33.766Z,2.42
2022-12-27T15:00:23.410Z,2.30
2022-12-27T15:03:17.340Z,2.30
2022-12-27T15:06:06.500Z,2.70
2022-12-27T15:08:55.427Z,2.65
2022-12-27T15:11:48.958Z,2.50
2022-12-27T15:14:40.093Z,2.40
2022-12-27T15:17:12.612Z,2.35
2022-12-27T15:19:56.975Z,2.88
2022-12-27T15:22:49.736Z,2.60
2022-12-27T15:25:44.294Z,2.40
2022-12-27T15:28:45.645Z,2.70
2022-12-27T15:31:26.205Z,2.72
2022-12-27T15:33:58.604Z,2.55
2022-12-27T15:36:49.666Z,2.53
2022-12-27T15:39:34.033Z,2.42
2022-12-27T15:42:14.498Z,2.47
2022-12-27T15:45:11.721Z,2.42
2022-12-27T15:47:56.229Z,3.03
2022-12-27T15:50:39.901Z,2.72
2022-12-27T15:53:31.790Z,2.90
2022-12-27T15:56:19.593Z,3.00
2022-12-27T15:59:24.345Z,3.00
2022-12-27T16:02:18.357Z,2.78
2022-12-27T16:04:47.866Z,3.20
2022-12-27T16:07:37.402Z,3.75
2022-12-27T16:10:25.807Z,2.83
2022-12-27T16:12:54.531Z,4.30
2022-12-27T16:15:47.861Z,3.38
2022-12-27T16:18:20.335Z,3.05
2022-12-27T16:20:55.349Z,3.85
2022-12-27T16:23:29.429Z,2.93
2022-12-27T16:26:05.430Z,4.32
2022-12-27T16:28:35.342Z,4.07
2022-12-27T16:31:06.239Z,3.65
2022-12-27T16:33:37.409Z,3.90
2022-12-27T16:36:06.972Z,3.77
2022-12-27T16:38:34.769Z,3.72
2022-12-27T16:41:24.562Z,3.55
2022-12-27T16:44:00.099Z,2.63
2022-12-27T16:46:47.951Z,2.85
2022-12-27T16:49:32.623Z,2.77
2022-12-27T16:52:17.364Z,3.10
2022-12-27T16:55:02.539Z,2.67
2022-12-27T16:57:39.209Z,2.88
2022-12-27T17:00:08.300Z,2.25
2022-12-27T17:02:38.496Z,2.50
2022-12-27T17:05:17.025Z,2.30
2022-12-27T17:07:52.500Z,2.45
2022-12-27T17:10:24.923Z,2.88
2022-12-27T17:13:00.453Z,3.67
2022-12-27T17:15:27.487Z,2.40
2022-12-27T17:17:56.787Z,3.08
2022-12-27T17:20:23.915Z,2.30
2022-12-27T17:22:54.568Z,2.30
2022-12-27T17:25:29.907Z,2.15
2022-12-27T17:28:32.061Z,2.50
2022-12-27T17:31:22.707Z,2.50
2022-12-27T17:34:04.588Z,2.67
2022-12-27T17:36:55.503Z,2.35
2022-12-27T17:39:43.862Z,2.78
2022-12-27T17:42:33.580Z,2.53
2022-12-27T17:45:37.217Z,2.22
2022-12-27T17:48:15.331Z,6.63
2022-12-27T17:50:44.395Z,18.27
2022-12-27T17:53:29.520Z,4.13
2022-12-27T17:56:31.439Z,2.77
2022-12-27T17:59:08.445Z,2.75
2022-12-27T18:01:40.980Z,2.92
2022-12-27T18:04:07.891Z,2.72
2022-12-27T18:06:37.041Z,2.78
2022-12-27T18:09:04.392Z,2.37
2022-12-27T18:11:33.112Z,3.45
2022-12-27T18:14:00.631Z,3.40
2022-12-27T18:16:37.251Z,2.88
2022-12-27T18:19:03.915Z,3.00
2022-12-27T18:21:30.404Z,2.47
2022-12-27T18:23:57.178Z,2.80
2022-12-27T18:26:35.027Z,2.95
2022-12-27T18:29:01.583Z,2.80
2022-12-27T18:31:39.440Z,2.75
2022-12-27T18:34:16.513Z,3.00
2022-12-27T18:36:57.280Z,2.60
2022-12-27T18:39:33.681Z,2.70
2022-12-27T18:42:04.287Z,2.70
2022-12-27T18:44:42.458Z,2.80
2022-12-27T18:47:20.000Z,2.60
2022-12-27T18:49:52.517Z,3.03
2022-12-27T18:52:24.426Z,2.20
2022-12-27T18:54:51.951Z,2.95
2022-12-27T18:57:35.711Z,2.47
2022-12-27T19:00:21.987Z,2.37
2022-12-27T19:02:49.903Z,2.17
2022-12-27T19:05:19.429Z,2.40
2022-12-27T19:07:51.325Z,2.40
2022-12-27T19:10:19.786Z,2.50
2022-12-27T19:12:46.858Z,2.57
2022-12-27T19:15:24.772Z,2.28
2022-12-27T19:17:55.276Z,2.60
2022-12-27T19:20:34.803Z,3.15
2022-12-27T19:23:24.176Z,3.10
2022-12-27T19:26:16.521Z,2.20
2022-12-27T19:28:45.031Z,2.70
2022-12-27T19:31:18.493Z,3.00
2022-12-27T19:33:50.099Z,2.58
2022-12-27T19:36:17.108Z,3.20
2022-12-27T19:38:47.802Z,2.50
2022-12-27T19:41:14.886Z,2.75
2022-12-27T19:43:46.021Z,3.00
2022-12-27T19:46:14.108Z,2.95
2022-12-27T19:48:41.063Z,2.30
2022-12-27T19:51:13.127Z,2.43
2022-12-27T19:53:42.568Z,3.00
2022-12-27T19:56:10.527Z,2.30
2022-12-27T19:58:37.392Z,2.40
2022-12-27T20:01:04.217Z,3.00
2022-12-27T20:03:30.826Z,2.37
2022-12-27T20:06:14.312Z,2.20
2022-12-27T20:08:44.965Z,2.10
2022-12-27T20:11:17.537Z,2.60
2022-12-27T20:13:44.140Z,2.20
2022-12-27T20:16:13.020Z,2.30
2022-12-27T20:18:40.818Z,2.40
2022-12-27T20:21:07.762Z,1.90
2022-12-27T20:23:34.118Z,2.25
2022-12-27T20:26:00.518Z,2.17
2022-12-27T20:28:26.950Z,2.60
2022-12-27T20:30:53.553Z,2.17
2022-12-27T20:33:20.068Z,2.35
2022-12-27T20:35:54.917Z,2.10
2022-12-27T20:38:21.295Z,2.22
2022-12-27T20:40:47.813Z,2.50
2022-12-27T20:43:14.268Z,2.00
2022-12-27T20:45:40.705Z,2.22
2022-12-27T20:48:09.231Z,2.05
2022-12-27T20:50:40.692Z,2.30
2022-12-27T20:53:07.673Z,2.33
2022-12-27T20:55:34.352Z,2.40
2022-12-27T20:58:01.279Z,2.08
2022-12-27T21:00:27.709Z,2.10
2022-12-27T21:02:54.321Z,1.92
2022-12-27T21:05:20.854Z,1.97
2022-12-27T21:07:47.229Z,2.35
2022-12-27T21:10:13.546Z,2.55
2022-12-27T21:12:40.064Z,1.83
2022-12-27T21:15:08.467Z,2.10
2022-12-27T21:17:35.256Z,2.23
2022-12-27T21:20:01.674Z,1.90
2022-12-27T21:22:28.485Z,2.80
2022-12-27T21:24:54.922Z,1.88
2022-12-27T21:27:21.263Z,2.00
2022-12-27T21:29:47.677Z,2.27
2022-12-27T21:32:14.059Z,2.15
2022-12-27T21:34:41.164Z,2.00
2022-12-27T21:37:13.069Z,1.88
2022-12-27T21:39:39.968Z,1.98
2022-12-27T21:42:06.411Z,2.27
2022-12-27T21:44:35.205Z,1.95
2022-12-27T21:47:01.590Z,2.05
2022-12-27T21:49:27.936Z,2.00
2022-12-27T21:51:54.329Z,2.33
2022-12-27T21:54:20.695Z,2.17
2022-12-27T21:56:47.137Z,2.20
2022-12-27T21:59:13.550Z,2.85
2022-12-27T22:01:52.137Z,2.20
2022-12-27T22:04:20.215Z,2.22
2022-12-27T22:06:47.771Z,2.27
2022-12-27T22:09:15.011Z,2.15
2022-12-27T22:11:41.884Z,2.33
2022-12-27T22:14:08.313Z,2.15
2022-12-27T22:16:36.984Z,2.75
2022-12-27T22:19:13.431Z,2.40
2022-12-27T22:21:41.463Z,2.33
2022-12-27T22:24:11.739Z,2.30
2022-12-27T22:26:38.506Z,2.63
2022-12-27T22:29:05.776Z,2.50
2022-12-27T22:31:35.381Z,2.10
2022-12-27T22:34:03.578Z,2.88
2022-12-27T22:36:30.050Z,1.92
2022-12-27T22:38:57.977Z,2.60
2022-12-27T22:41:26.998Z,2.63
2022-12-27T22:43:59.653Z,2.00
2022-12-27T22:46:27.387Z,2.60
2022-12-27T22:48:56.598Z,2.30
2022-12-27T22:51:26.124Z,2.90
2022-12-27T22:53:53.800Z,2.20
2022-12-27T22:56:29.465Z,2.53
2022-12-27T22:58:55.973Z,2.88
2022-12-27T23:01:28.139Z,2.33
2022-12-27T23:03:59.008Z,2.95
2022-12-27T23:06:26.990Z,2.30
2022-12-27T23:08:54.149Z,2.43
2022-12-27T23:11:23.423Z,2.80
2022-12-27T23:14:09.896Z,3.00
2022-12-27T23:16:41.278Z,2.10
2022-12-27T23:19:11.949Z,2.20
2022-12-27T23:21:38.740Z,2.77
2022-12-27T23:24:06.224Z,2.97
2022-12-27T23:26:32.718Z,2.72
2022-12-27T23:28:59.244Z,2.50
2022-12-27T23:31:26.975Z,2.60
2022-12-27T23:33:53.883Z,2.40
2022-12-27T23:36:21.726Z,2.13
2022-12-27T23:38:48.720Z,2.47
2022-12-27T23:41:18.887Z,2.50
2022-12-27T23:43:54.296Z,2.53
2022-12-27T23:46:28.267Z,2.30
2022-12-27T23:48:56.461Z,3.08
2022-12-27T23:51:23.954Z,2.70
2022-12-27T23:53:51.039Z,2.25
2022-12-27T23:56:20.265Z,2.38
2022-12-27T23:58:48.139Z,2.67
